createdAt,value
2019-04-21T00:00:27.535Z,12.00
2019-04-21T00:03:23.486Z,10.00
2019-04-21T00:06:11.936Z,12.20
2019-04-21T00:08:46.914Z,10.00
2019-04-21T00:11:18.513Z,10.00
2019-04-21T00:13:42.457Z,14.60
2019-04-21T01:00:20.697Z,17.25
2019-04-21T01:47:25.211Z,14.40
2019-04-21T01:51:16.030Z,12.00
2019-04-21T01:54:06.450Z,14.60
2019-04-21T01:57:10.463Z,17.20
2019-04-21T01:59:36.310Z,12.00
2019-04-21T02:02:14.192Z,14.40
2019-04-21T02:04:54.252Z,17.00
2019-04-21T02:07:20.683Z,14.00
2019-04-21T02:09:51.280Z,14.40
2019-04-21T02:12:25.274Z,13.40
2019-04-21T02:15:16.879Z,11.00
2019-04-21T02:17:29.480Z,14.00
2019-04-21T02:19:56.390Z,15.60
2019-04-21T02:22:46.736Z,19.00
2019-04-21T02:25:22.860Z,14.60
2019-04-21T02:27:42.961Z,15.60
2019-04-21T02:30:21.842Z,18.20
2019-04-21T02:33:04.022Z,10.00
2019-04-21T02:38:01.228Z,15.25
2019-04-21T02:43:13.169Z,13.00
2019-04-21T02:45:44.893Z,16.40
2019-04-21T02:48:08.825Z,13.00
2019-04-21T02:50:37.634Z,14.50
2019-04-21T02:53:21.188Z,13.60
2019-04-21T02:55:43.745Z,19.00
2019-04-21T02:58:28.742Z,13.60
2019-04-21T03:01:05.171Z,14.40
2019-04-21T03:04:06.226Z,14.60
2019-04-21T03:06:56.372Z,13.50
2019-04-21T03:09:24.347Z,11.00
2019-04-21T03:12:01.514Z,13.60
2019-04-21T03:14:46.488Z,12.50
2019-04-21T03:16:59.603Z,13.20
2019-04-21T03:19:38.010Z,13.00
2019-04-21T03:22:07.207Z,14.60
2019-04-21T03:27:20.616Z,16.00
2019-04-21T03:29:48.641Z,14.00
2019-04-21T03:35:32.595Z,14.40
2019-04-21T03:37:23.234Z,15.00
2019-04-21T03:39:50.669Z,15.00
2019-04-21T03:44:59.543Z,13.40
2019-04-21T03:50:05.250Z,16.00
2019-04-21T03:52:38.802Z,17.40
2019-04-21T04:09:09.538Z,12.60
2019-04-21T04:11:48.661Z,12.00
2019-04-21T04:16:50.397Z,15.20
2019-04-21T04:19:34.427Z,12.40
2019-04-21T04:31:47.521Z,13.00
2019-04-21T04:34:27.533Z,14.60
2019-04-21T04:37:30.268Z,14.00
2019-04-21T04:40:10.016Z,15.00
2019-04-21T04:43:11.873Z,19.60
2019-04-21T04:45:41.524Z,15.20
2019-04-21T04:48:15.145Z,16.00
2019-04-21T04:53:28.726Z,14.00
2019-04-21T04:55:47.922Z,17.50
2019-04-21T04:58:18.008Z,16.00
2019-04-21T05:01:08.031Z,13.00
2019-04-21T05:03:36.436Z,19.00
2019-04-21T05:09:03.499Z,19.40
2019-04-21T05:16:43.183Z,14.60
2019-04-21T05:19:10.138Z,16.00
2019-04-21T05:23:55.422Z,16.40
2019-04-21T05:26:30.003Z,14.00
2019-04-21T05:29:00.441Z,17.75
2019-04-21T05:31:50.962Z,19.40
2019-04-21T05:34:27.295Z,16.60
2019-04-21T05:37:24.702Z,22.80
2019-04-21T05:39:53.511Z,19.00
2019-04-21T05:42:27.335Z,18.60
2019-04-21T05:45:27.027Z,20.40
2019-04-21T05:47:52.037Z,19.60
2019-04-21T05:50:16.750Z,14.20
2019-04-21T05:52:50.385Z,14.20
2019-04-21T05:58:02.573Z,14.40
2019-04-21T06:00:52.972Z,14.40
2019-04-21T06:03:09.971Z,19.60
2019-04-21T06:05:51.169Z,17.00
2019-04-21T06:08:13.459Z,14.40
2019-04-21T06:10:50.856Z,16.00
2019-04-21T06:15:56.495Z,25.20
2019-04-21T06:18:27.402Z,18.00
2019-04-21T06:21:03.390Z,16.00
2019-04-21T06:23:30.121Z,16.60
2019-04-21T06:31:11.149Z,17.50
2019-04-21T06:33:43.169Z,17.00
2019-04-21T06:39:05.731Z,14.00
2019-04-21T06:44:07.590Z,17.00
2019-04-21T06:46:42.438Z,18.60
2019-04-21T06:49:20.423Z,18.60
2019-04-21T06:51:57.616Z,19.20
2019-04-21T06:54:14.493Z,16.60
2019-04-21T06:56:47.928Z,20.00
2019-04-21T06:59:16.408Z,19.20
2019-04-21T07:02:26.414Z,15.80
2019-04-21T07:04:26.208Z,17.00
2019-04-21T07:06:59.434Z,16.50
2019-04-21T07:09:31.199Z,14.80
2019-04-21T07:11:59.808Z,14.00
2019-04-21T07:14:35.624Z,13.80
2019-04-21T07:17:11.607Z,14.00
2019-04-21T07:22:22.383Z,14.60
2019-04-21T07:24:42.800Z,15.00
2019-04-21T07:27:24.114Z,14.25
2019-04-21T07:29:54.950Z,14.20
2019-04-21T07:32:22.274Z,10.20
2019-04-21T07:34:57.687Z,13.25
2019-04-21T07:37:33.219Z,11.60
2019-04-21T07:39:56.794Z,14.60
2019-04-21T07:42:29.571Z,15.00
2019-04-21T07:44:59.326Z,12.60
2019-04-21T07:47:46.061Z,14.00
2019-04-21T07:50:26.469Z,13.00
2019-04-21T07:53:12.738Z,14.40
2019-04-21T07:58:07.294Z,13.80
2019-04-21T08:03:19.492Z,12.00
2019-04-21T08:05:53.032Z,13.60
2019-04-21T08:08:22.038Z,12.25
2019-04-21T08:10:52.257Z,12.40
2019-04-21T08:13:34.255Z,11.60
2019-04-21T08:15:58.311Z,13.00
2019-04-21T08:18:33.245Z,14.00
2019-04-21T08:21:02.739Z,12.60
2019-04-21T08:23:39.940Z,12.00
2019-04-21T08:26:07.992Z,12.20
2019-04-21T08:28:39.203Z,13.00
2019-04-21T08:31:14.353Z,11.60
2019-04-21T08:33:56.182Z,13.00
2019-04-21T08:38:54.501Z,15.00
2019-04-21T08:41:18.477Z,12.80
2019-04-21T08:43:51.552Z,15.00
2019-04-21T08:46:49.088Z,16.20
2019-04-21T08:49:02.672Z,9.50
2019-04-21T08:51:33.384Z,14.00
2019-04-21T08:54:09.195Z,13.00
2019-04-21T08:57:02.502Z,11.80
2019-04-21T09:00:03.217Z,12.00
2019-04-21T09:02:54.743Z,13.80
2019-04-21T09:05:17.575Z,11.00
2019-04-21T09:07:56.045Z,14.20
2019-04-21T09:10:23.518Z,10.00
2019-04-21T09:12:57.226Z,12.40
2019-04-21T09:15:24.982Z,11.00
2019-04-21T09:17:53.458Z,11.40
2019-04-21T09:20:32.717Z,10.20
2019-04-21T09:23:11.061Z,11.00
2019-04-21T09:25:41.723Z,11.00
2019-04-21T09:28:08.064Z,10.00
2019-04-21T09:30:24.129Z,9.60
2019-04-21T09:32:58.180Z,11.00
2019-04-21T09:35:27.392Z,11.00
2019-04-21T09:38:07.806Z,9.80
2019-04-21T09:40:37.175Z,10.00
2019-04-21T09:43:08.526Z,10.75
2019-04-21T09:45:37.724Z,11.00
2019-04-21T09:48:15.042Z,14.00
2019-04-21T09:50:41.489Z,13.20
2019-04-21T09:53:20.967Z,10.50
2019-04-21T09:55:51.261Z,12.60
2019-04-21T09:58:26.349Z,14.00
2019-04-21T10:01:01.464Z,12.00
2019-04-21T10:03:23.089Z,9.40
2019-04-21T10:05:54.133Z,10.00
2019-04-21T10:08:25.115Z,12.60
2019-04-21T10:10:56.955Z,8.50
2019-04-21T10:13:27.785Z,11.00
2019-04-21T10:16:17.466Z,11.20
2019-04-21T10:18:48.396Z,8.80
2019-04-21T10:21:19.778Z,7.60
2019-04-21T10:23:50.622Z,10.20
2019-04-21T10:26:22.320Z,11.00
2019-04-21T10:28:53.240Z,11.60
2019-04-21T10:31:24.915Z,10.00
2019-04-21T10:33:55.765Z,10.00
2019-04-21T10:36:26.877Z,11.00
2019-04-21T10:39:00.393Z,11.00
2019-04-21T10:41:30.208Z,10.00
2019-04-21T10:44:01.256Z,9.00
2019-04-21T10:46:32.923Z,9.60
2019-04-21T10:49:04.413Z,9.20
2019-04-21T10:51:35.355Z,10.40
2019-04-21T10:54:06.371Z,10.00
2019-04-21T10:56:42.393Z,9.00
2019-04-21T10:59:12.023Z,8.75
2019-04-21T11:01:43.074Z,11.00
2019-04-21T11:04:27.833Z,9.60
2019-04-21T11:06:57.092Z,8.00
2019-04-21T11:09:29.877Z,9.00
2019-04-21T11:12:02.023Z,11.00
2019-04-21T11:14:33.460Z,10.00
2019-04-21T11:17:05.968Z,10.00
2019-04-21T11:19:37.024Z,9.00
2019-04-21T11:22:07.669Z,10.00
2019-04-21T11:24:38.997Z,9.60
2019-04-21T11:27:11.099Z,9.00
2019-04-21T11:29:43.214Z,9.40
2019-04-21T11:32:14.741Z,11.60
2019-04-21T11:34:47.419Z,9.80
2019-04-21T11:37:20.214Z,7.80
2019-04-21T11:39:57.916Z,10.00
2019-04-21T11:42:33.616Z,15.00
2019-04-21T11:45:06.284Z,9.80
2019-04-21T11:47:42.595Z,9.75
2019-04-21T11:50:14.882Z,14.60
2019-04-21T11:52:45.639Z,12.00
2019-04-21T11:55:16.661Z,10.20
2019-04-21T11:57:50.161Z,9.00
2019-04-21T12:00:21.770Z,10.60
2019-04-21T12:02:53.350Z,8.80
2019-04-21T12:05:25.485Z,8.80
2019-04-21T12:07:58.503Z,7.00
2019-04-21T12:10:29.313Z,11.00
2019-04-21T12:13:01.663Z,11.40
2019-04-21T12:15:32.768Z,11.00
2019-04-21T12:18:03.914Z,9.80
2019-04-21T12:20:37.553Z,8.75
2019-04-21T12:23:08.807Z,11.80
2019-04-21T12:25:43.225Z,9.60
2019-04-21T12:28:14.277Z,9.60
2019-04-21T12:30:47.365Z,9.00
2019-04-21T12:33:36.237Z,8.80
2019-04-21T12:36:07.733Z,10.00
2019-04-21T12:38:46.296Z,6.40
2019-04-21T12:41:11.102Z,11.00
2019-04-21T12:43:44.542Z,9.00
2019-04-21T12:46:15.962Z,7.60
2019-04-21T12:48:46.703Z,10.40
2019-04-21T12:51:17.671Z,10.50
2019-04-21T12:53:49.840Z,8.80
2019-04-21T12:56:21.059Z,8.50
2019-04-21T12:58:53.217Z,11.60
2019-04-21T13:01:25.053Z,9.50
2019-04-21T13:03:55.973Z,9.80
2019-04-21T13:06:27.876Z,14.50
2019-04-21T13:09:04.889Z,11.40
2019-04-21T13:11:33.162Z,8.00
2019-04-21T13:14:06.129Z,8.80
2019-04-21T13:16:37.209Z,10.60
2019-04-21T13:19:09.238Z,9.00
2019-04-21T13:21:40.454Z,7.00
2019-04-21T13:24:11.690Z,9.40
2019-04-21T13:26:48.485Z,7.00
2019-04-21T13:29:16.397Z,10.00
2019-04-21T13:31:48.088Z,15.75
2019-04-21T13:34:20.004Z,8.00
2019-04-21T13:36:51.777Z,9.20
2019-04-21T13:40:13.176Z,8.00
2019-04-21T13:42:34.278Z,8.40
2019-04-21T13:45:00.949Z,10.40
2019-04-21T13:47:32.536Z,8.80
2019-04-21T13:50:05.322Z,6.60
2019-04-21T13:52:36.488Z,10.00
2019-04-21T13:55:07.802Z,8.00
2019-04-21T13:57:40.923Z,9.00
2019-04-21T14:00:13.081Z,9.00
2019-04-21T14:02:44.790Z,9.20
2019-04-21T14:05:15.939Z,8.80
2019-04-21T14:07:48.118Z,7.00
2019-04-21T14:10:19.850Z,6.80
2019-04-21T14:12:51.067Z,7.00
2019-04-21T14:15:22.201Z,6.00
2019-04-21T14:17:53.273Z,8.00
2019-04-21T14:20:27.162Z,8.00
2019-04-21T14:23:10.310Z,7.00
2019-04-21T14:25:32.067Z,7.40
2019-04-21T14:28:04.016Z,8.00
2019-04-21T14:30:34.912Z,11.40
2019-04-21T14:33:05.732Z,8.00
2019-04-21T14:35:36.797Z,8.25
2019-04-21T14:38:08.952Z,10.00
2019-04-21T14:40:40.142Z,7.20
2019-04-21T14:43:12.014Z,7.00
2019-04-21T14:45:54.745Z,8.00
2019-04-21T14:48:45.371Z,7.60
2019-04-21T14:51:34.953Z,8.60
2019-04-21T14:54:28.840Z,7.00
2019-04-21T14:57:00.932Z,7.00
2019-04-21T14:59:33.102Z,8.00
2019-04-21T15:02:05.586Z,7.00
2019-04-21T15:04:37.723Z,7.75
2019-04-21T15:07:09.714Z,7.00
2019-04-21T15:09:42.539Z,6.80
2019-04-21T15:12:14.018Z,8.00
2019-04-21T15:14:45.072Z,8.00
2019-04-21T15:17:18.927Z,8.40
2019-04-21T15:19:52.228Z,11.50
2019-04-21T15:22:20.880Z,10.00
2019-04-21T15:24:52.129Z,7.00
2019-04-21T15:27:23.175Z,10.00
2019-04-21T15:29:56.453Z,8.20
2019-04-21T15:32:28.451Z,6.80
2019-04-21T15:35:00.361Z,7.20
2019-04-21T15:37:31.634Z,7.60
2019-04-21T15:40:17.349Z,7.00
2019-04-21T15:42:36.626Z,7.20
2019-04-21T15:45:08.424Z,7.75
2019-04-21T15:47:40.000Z,7.60
2019-04-21T15:50:15.516Z,5.60
2019-04-21T15:52:43.464Z,8.50
2019-04-21T15:55:38.943Z,7.00
2019-04-21T15:58:38.945Z,7.00
2019-04-21T16:01:44.435Z,8.00
2019-04-21T16:04:16.743Z,6.40
2019-04-21T16:06:47.844Z,13.00
2019-04-21T16:09:21.753Z,9.00
2019-04-21T16:11:51.664Z,10.00
2019-04-21T16:14:22.845Z,9.00
2019-04-21T16:16:53.817Z,8.40
2019-04-21T16:19:27.070Z,10.00
2019-04-21T16:21:59.173Z,9.00
2019-04-21T16:24:30.873Z,11.00
2019-04-21T16:27:05.299Z,7.80
2019-04-21T16:29:34.296Z,10.20
2019-04-21T16:32:05.357Z,7.80
2019-04-21T16:34:45.568Z,10.50
2019-04-21T16:37:09.794Z,10.40
2019-04-21T16:39:41.253Z,11.60
2019-04-21T16:42:14.214Z,8.00
2019-04-21T16:44:45.112Z,23.00
2019-04-21T16:47:17.115Z,11.20
2019-04-21T16:49:48.056Z,12.40
2019-04-21T16:52:25.942Z,12.00
2019-04-21T16:55:04.635Z,9.40
2019-04-21T16:57:37.810Z,9.00
2019-04-21T17:00:13.827Z,8.00
2019-04-21T17:02:43.816Z,12.00
2019-04-21T17:05:15.976Z,9.75
2019-04-21T17:07:47.148Z,10.00
2019-04-21T17:10:17.909Z,11.40
2019-04-21T17:12:48.829Z,8.00
2019-04-21T17:15:35.673Z,8.60
2019-04-21T17:18:07.793Z,10.60
2019-04-21T17:20:35.690Z,13.60
2019-04-21T17:22:57.712Z,9.00
2019-04-21T17:25:29.676Z,12.50
2019-04-21T17:28:01.603Z,9.20
2019-04-21T17:30:32.625Z,10.40
2019-04-21T17:33:03.550Z,10.00
2019-04-21T17:35:35.229Z,9.40
2019-04-21T17:38:06.150Z,10.00
2019-04-21T17:40:37.890Z,9.40
2019-04-21T17:43:13.868Z,10.75
2019-04-21T17:45:41.508Z,13.00
2019-04-21T17:48:15.903Z,11.50
2019-04-21T17:51:07.607Z,10.50
2019-04-21T17:53:48.251Z,11.00
2019-04-21T17:56:42.860Z,11.00
2019-04-21T17:59:07.260Z,12.00
2019-04-21T18:01:45.696Z,11.60
2019-04-21T18:04:14.743Z,14.00
2019-04-21T18:07:08.468Z,10.00
2019-04-21T18:09:51.759Z,7.75
2019-04-21T18:12:18.020Z,8.00
2019-04-21T18:14:34.532Z,9.75
2019-04-21T18:17:06.534Z,9.00
2019-04-21T18:19:43.153Z,14.20
2019-04-21T18:22:34.255Z,14.00
2019-04-21T18:25:06.776Z,12.00
2019-04-21T18:27:34.551Z,13.00
2019-04-21T18:30:26.741Z,10.80
2019-04-21T18:32:58.653Z,11.20
2019-04-21T18:35:40.448Z,10.40
2019-04-21T18:38:22.760Z,10.40
2019-04-21T18:40:50.894Z,12.40
2019-04-21T20:12:06.717Z,28.00
2019-04-21T20:17:16.925Z,24.80
2019-04-21T20:48:52.314Z,28.60
2019-04-21T21:03:04.505Z,31.00
2019-04-21T21:05:27.259Z,16.60
2019-04-21T21:08:03.602Z,13.20
2019-04-21T21:10:33.901Z,10.20
2019-04-21T21:13:14.753Z,13.00
2019-04-21T21:15:36.439Z,24.80
2019-04-21T21:18:15.501Z,24.60
2019-04-21T21:20:43.676Z,50.00
2019-04-21T21:23:14.041Z,29.20
2019-04-21T21:25:52.983Z,30.00
2019-04-21T21:28:32.594Z,23.00
2019-04-21T21:31:07.437Z,32.40
2019-04-21T21:33:52.685Z,20.80
2019-04-21T21:36:13.962Z,54.25
2019-04-21T22:10:20.926Z,20.40
2019-04-21T22:12:59.800Z,15.00
2019-04-21T22:15:26.787Z,17.80
2019-04-21T22:18:17.787Z,14.50
2019-04-21T23:41:52.809Z,15.60
2019-04-21T23:44:22.191Z,14.00
2019-04-21T23:46:57.583Z,18.00
